createdAt,value
2019-03-15T00:00:40.235Z,2.33
2019-03-15T00:03:08.416Z,3.43
2019-03-15T00:05:36.504Z,3.43
2019-03-15T00:08:04.661Z,6.33
2019-03-15T00:10:32.922Z,3.73
2019-03-15T00:13:01.128Z,2.53
2019-03-15T00:15:30.293Z,4.13
2019-03-15T00:18:00.108Z,6.40
2019-03-15T00:20:28.540Z,3.63
2019-03-15T00:22:56.636Z,7.03
2019-03-15T00:25:25.414Z,4.77
2019-03-15T00:27:55.275Z,5.77
2019-03-15T00:30:23.512Z,4.40
2019-03-15T00:32:52.019Z,6.00
2019-03-15T00:35:20.584Z,6.67
2019-03-15T00:37:49.185Z,6.60
2019-03-15T00:40:17.410Z,5.07
2019-03-15T00:42:46.265Z,5.30
2019-03-15T00:45:14.781Z,5.40
2019-03-15T00:47:43.389Z,3.17
2019-03-15T00:50:12.755Z,4.13
2019-03-15T00:52:41.616Z,7.23
2019-03-15T00:55:10.445Z,6.80
2019-03-15T00:57:38.405Z,4.90
2019-03-15T01:00:08.531Z,4.00
2019-03-15T01:02:36.993Z,8.83
2019-03-15T01:05:05.357Z,4.83
2019-03-15T01:07:33.570Z,3.97
2019-03-15T01:10:02.743Z,5.87
2019-03-15T01:12:31.388Z,4.50
2019-03-15T01:14:59.463Z,3.40
2019-03-15T01:17:29.279Z,5.83
2019-03-15T01:19:58.089Z,5.40
2019-03-15T01:22:27.288Z,9.67
2019-03-15T01:24:55.490Z,9.07
2019-03-15T01:27:24.474Z,5.37
2019-03-15T01:29:52.544Z,7.87
2019-03-15T01:32:20.999Z,5.20
2019-03-15T01:34:49.884Z,2.57
2019-03-15T01:37:17.966Z,4.83
2019-03-15T01:39:46.859Z,4.57
2019-03-15T01:42:14.948Z,5.70
2019-03-15T01:44:43.258Z,8.23
2019-03-15T01:47:11.654Z,6.30
2019-03-15T01:49:40.682Z,5.30
2019-03-15T01:52:09.028Z,9.67
2019-03-15T01:54:37.110Z,5.93
2019-03-15T01:57:05.385Z,3.10
2019-03-15T01:59:35.513Z,6.00
2019-03-15T02:02:03.510Z,10.30
2019-03-15T02:04:33.578Z,4.47
2019-03-15T02:07:02.071Z,6.23
2019-03-15T02:09:30.591Z,6.57
2019-03-15T02:12:00.391Z,6.03
2019-03-15T02:14:28.508Z,4.70
2019-03-15T02:16:57.011Z,8.37
2019-03-15T02:19:25.367Z,7.00
2019-03-15T02:21:53.688Z,5.17
2019-03-15T02:24:22.251Z,4.67
2019-03-15T02:26:50.503Z,6.10
2019-03-15T02:29:21.552Z,6.80
2019-03-15T02:32:09.287Z,5.60
2019-03-15T02:34:37.692Z,5.70
2019-03-15T02:37:06.965Z,6.80
2019-03-15T02:39:35.211Z,4.10
2019-03-15T02:42:03.606Z,5.47
2019-03-15T02:44:31.660Z,5.33
2019-03-15T02:47:00.045Z,6.33
2019-03-15T02:49:28.953Z,7.47
2019-03-15T02:51:57.108Z,2.83
2019-03-15T02:54:27.308Z,7.10
2019-03-15T02:56:56.544Z,4.77
2019-03-15T02:59:27.817Z,5.13
2019-03-15T03:01:56.223Z,3.33
2019-03-15T03:04:27.620Z,5.07
2019-03-15T03:06:56.334Z,5.47
2019-03-15T03:09:24.810Z,3.60
2019-03-15T03:11:54.305Z,3.70
2019-03-15T03:14:23.149Z,5.63
2019-03-15T03:16:51.584Z,7.67
2019-03-15T03:19:19.916Z,4.33
2019-03-15T03:21:47.949Z,5.53
2019-03-15T03:24:16.150Z,6.27
2019-03-15T03:26:44.422Z,7.20
2019-03-15T03:29:12.760Z,8.63
2019-03-15T03:31:41.260Z,8.93
2019-03-15T03:34:09.449Z,5.90
2019-03-15T03:36:42.595Z,7.17
2019-03-15T03:39:10.822Z,5.70
2019-03-15T03:41:39.603Z,10.00
2019-03-15T03:44:08.201Z,10.57
2019-03-15T03:46:36.665Z,6.87
2019-03-15T03:49:04.769Z,4.67
2019-03-15T03:51:33.251Z,7.10
2019-03-15T03:54:01.970Z,4.23
2019-03-15T03:56:30.290Z,5.37
2019-03-15T03:58:58.749Z,5.47
2019-03-15T04:01:27.381Z,6.90
2019-03-15T04:03:56.831Z,4.90
2019-03-15T04:06:25.576Z,6.40
2019-03-15T04:08:54.150Z,4.57
2019-03-15T04:11:22.864Z,6.63
2019-03-15T04:13:51.389Z,3.33
2019-03-15T04:16:19.600Z,7.07
2019-03-15T04:18:48.201Z,5.87
2019-03-15T04:21:16.895Z,6.40
2019-03-15T04:23:45.674Z,3.73
2019-03-15T04:26:13.817Z,5.73
2019-03-15T04:28:42.865Z,5.03
2019-03-15T04:31:10.981Z,6.67
2019-03-15T04:33:39.602Z,4.10
2019-03-15T04:36:09.512Z,3.27
2019-03-15T04:38:37.637Z,4.60
2019-03-15T04:41:06.263Z,4.53
2019-03-15T04:43:34.542Z,3.33
2019-03-15T04:46:02.695Z,5.77
2019-03-15T04:48:31.627Z,6.37
2019-03-15T04:50:59.951Z,4.23
2019-03-15T04:53:28.766Z,8.53
2019-03-15T04:55:57.340Z,6.60
2019-03-15T04:58:25.604Z,3.67
2019-03-15T05:00:54.270Z,4.03
2019-03-15T05:03:22.988Z,5.77
2019-03-15T05:06:02.503Z,5.37
2019-03-15T05:08:22.509Z,4.00
2019-03-15T05:10:50.824Z,4.70
2019-03-15T05:13:18.891Z,8.40
2019-03-15T05:15:47.563Z,7.37
2019-03-15T05:18:16.118Z,4.47
2019-03-15T05:20:48.498Z,3.43
2019-03-15T05:23:16.963Z,7.20
2019-03-15T05:25:45.413Z,4.47
2019-03-15T05:28:13.604Z,8.03
2019-03-15T05:30:41.930Z,6.07
2019-03-15T05:33:10.722Z,6.33
2019-03-15T05:35:38.767Z,6.20
2019-03-15T05:38:07.089Z,6.93
2019-03-15T05:40:35.391Z,4.73
2019-03-15T05:43:03.781Z,5.83
2019-03-15T05:45:32.017Z,4.80
2019-03-15T05:48:00.118Z,6.10
2019-03-15T05:50:28.343Z,5.40
2019-03-15T05:52:56.848Z,6.47
2019-03-15T05:55:25.442Z,6.17
2019-03-15T05:57:53.922Z,4.07
2019-03-15T06:00:22.669Z,5.53
2019-03-15T06:02:51.533Z,5.93
2019-03-15T06:05:20.062Z,8.60
2019-03-15T06:07:48.145Z,9.17
2019-03-15T06:10:16.359Z,11.67
2019-03-15T06:12:44.970Z,9.20
2019-03-15T06:15:13.204Z,7.60
2019-03-15T06:17:41.457Z,13.13
2019-03-15T06:20:09.722Z,6.63
2019-03-15T06:22:38.071Z,9.90
2019-03-15T06:25:06.603Z,7.37
2019-03-15T06:27:34.691Z,7.80
2019-03-15T06:30:03.210Z,11.00
2019-03-15T06:32:31.335Z,12.30
2019-03-15T06:35:00.046Z,6.90
2019-03-15T06:37:28.101Z,8.50
2019-03-15T06:39:56.188Z,11.20
2019-03-15T06:42:24.354Z,8.93
2019-03-15T06:44:57.927Z,8.77
2019-03-15T06:47:23.792Z,8.27
2019-03-15T06:49:52.554Z,4.53
2019-03-15T06:52:21.492Z,4.57
2019-03-15T06:54:50.564Z,3.50
2019-03-15T06:57:19.155Z,3.17
2019-03-15T06:59:47.448Z,5.27
2019-03-15T07:02:15.880Z,5.10
2019-03-15T07:04:44.403Z,6.40
2019-03-15T07:07:15.154Z,8.20
2019-03-15T07:09:43.157Z,4.43
2019-03-15T07:12:11.757Z,6.13
2019-03-15T07:14:40.232Z,3.67
2019-03-15T07:17:08.659Z,2.73
2019-03-15T07:19:36.850Z,3.60
2019-03-15T07:22:05.336Z,5.33
2019-03-15T07:24:33.858Z,1.70
2019-03-15T07:27:12.094Z,3.30
2019-03-15T07:29:32.282Z,4.77
2019-03-15T07:32:00.386Z,2.83
2019-03-15T07:34:29.525Z,2.93
2019-03-15T07:36:57.588Z,1.93
2019-03-15T07:39:27.173Z,2.83
2019-03-15T07:41:55.400Z,1.53
2019-03-15T07:44:23.367Z,3.53
2019-03-15T07:46:51.691Z,3.97
2019-03-15T07:49:20.403Z,2.00
2019-03-15T07:51:48.915Z,1.37
2019-03-15T07:54:16.850Z,1.23
2019-03-15T07:56:45.705Z,4.67
2019-03-15T07:59:14.073Z,2.17
2019-03-15T08:01:43.191Z,2.43
2019-03-15T08:04:17.055Z,1.47
2019-03-15T08:06:41.918Z,1.90
2019-03-15T08:09:10.256Z,2.57
2019-03-15T08:11:38.353Z,2.20
2019-03-15T08:14:06.943Z,3.03
2019-03-15T08:16:35.915Z,2.30
2019-03-15T08:19:05.177Z,1.10
2019-03-15T08:21:33.677Z,0.80
2019-03-15T08:24:02.092Z,1.83
2019-03-15T08:26:30.502Z,1.60
2019-03-15T08:28:59.336Z,1.23
2019-03-15T08:31:27.740Z,1.23
2019-03-15T08:33:56.112Z,0.83
2019-03-15T08:36:24.588Z,1.07
2019-03-15T08:38:53.105Z,0.70
2019-03-15T08:41:22.184Z,1.03
2019-03-15T08:43:50.396Z,1.90
2019-03-15T08:46:18.613Z,1.77
2019-03-15T08:48:47.964Z,1.03
2019-03-15T08:51:16.448Z,2.57
2019-03-15T08:53:44.535Z,3.43
2019-03-15T08:56:14.565Z,3.30
2019-03-15T08:58:42.680Z,2.00
2019-03-15T09:01:11.188Z,3.70
2019-03-15T09:03:39.263Z,3.30
2019-03-15T09:06:07.337Z,2.57
2019-03-15T09:08:37.368Z,2.10
2019-03-15T09:11:06.100Z,1.63
2019-03-15T09:13:34.154Z,0.90
2019-03-15T09:16:02.575Z,2.33
2019-03-15T09:18:31.082Z,1.40
2019-03-15T09:20:59.306Z,1.57
2019-03-15T09:23:28.515Z,3.73
2019-03-15T09:25:57.025Z,2.97
2019-03-15T09:28:27.154Z,1.87
2019-03-15T09:30:55.871Z,5.00
2019-03-15T09:33:24.022Z,3.47
2019-03-15T09:35:52.317Z,1.70
2019-03-15T09:38:20.978Z,4.57
2019-03-15T09:40:49.226Z,1.33
2019-03-15T09:43:17.578Z,1.80
2019-03-15T09:45:45.945Z,2.43
2019-03-15T09:48:14.326Z,1.70
2019-03-15T09:50:51.273Z,4.27
2019-03-15T09:53:14.522Z,1.23
2019-03-15T09:55:43.738Z,1.83
2019-03-15T09:58:11.984Z,2.87
2019-03-15T10:00:41.328Z,3.20
2019-03-15T10:03:21.584Z,2.43
2019-03-15T10:05:39.946Z,2.00
2019-03-15T10:08:08.315Z,3.70
2019-03-15T10:10:37.103Z,1.53
2019-03-15T10:13:06.468Z,1.90
2019-03-15T10:15:35.332Z,1.50
2019-03-15T10:18:03.882Z,1.47
2019-03-15T10:20:32.752Z,2.03
2019-03-15T10:23:05.807Z,2.63
2019-03-15T10:25:31.342Z,2.73
2019-03-15T10:27:59.816Z,2.63
2019-03-15T10:30:27.929Z,1.63
2019-03-15T10:32:56.377Z,2.10
2019-03-15T10:35:24.828Z,2.50
2019-03-15T10:37:53.506Z,2.10
2019-03-15T10:40:22.678Z,1.53
2019-03-15T10:42:50.872Z,1.73
2019-03-15T10:45:19.414Z,0.67
2019-03-15T10:47:47.551Z,2.60
2019-03-15T10:50:15.887Z,3.03
2019-03-15T10:52:44.416Z,1.40
2019-03-15T10:55:13.425Z,1.70
2019-03-15T10:57:41.934Z,0.90
2019-03-15T11:00:12.688Z,1.60
2019-03-15T11:02:41.085Z,1.40
2019-03-15T11:05:11.502Z,0.60
2019-03-15T11:07:40.533Z,0.50
2019-03-15T11:10:09.040Z,0.67
2019-03-15T11:12:37.046Z,0.40
2019-03-15T11:15:06.399Z,0.67
2019-03-15T11:17:35.407Z,0.20
2019-03-15T11:20:04.236Z,0.20
2019-03-15T11:22:32.744Z,0.77
2019-03-15T11:25:00.950Z,0.77
2019-03-15T11:27:29.680Z,1.00
2019-03-15T11:29:58.005Z,0.20
2019-03-15T11:32:26.326Z,1.00
2019-03-15T11:34:55.803Z,0.90
2019-03-15T11:37:24.163Z,0.30
2019-03-15T11:39:52.490Z,0.20
2019-03-15T11:42:21.476Z,0.30
2019-03-15T11:44:49.774Z,0.40
2019-03-15T11:47:18.359Z,0.60
2019-03-15T11:49:47.063Z,0.30
2019-03-15T11:52:15.478Z,0.30
2019-03-15T11:54:44.041Z,0.40
2019-03-15T11:57:12.227Z,0.30
2019-03-15T11:59:41.295Z,0.40
2019-03-15T12:02:10.997Z,0.30
2019-03-15T12:04:39.404Z,0.33
2019-03-15T12:07:10.253Z,0.27
2019-03-15T12:09:41.024Z,0.20
2019-03-15T12:12:08.898Z,0.27
2019-03-15T12:14:41.302Z,0.70
2019-03-15T12:17:09.188Z,0.77
2019-03-15T12:19:37.379Z,0.40
2019-03-15T12:22:06.768Z,0.37
2019-03-15T12:24:35.409Z,0.30
2019-03-15T12:27:03.986Z,0.37
2019-03-15T12:29:32.253Z,0.30
2019-03-15T12:32:01.557Z,0.20
2019-03-15T12:34:30.569Z,0.30
2019-03-15T12:36:59.265Z,0.50
2019-03-15T12:39:27.778Z,0.53
2019-03-15T12:41:56.514Z,2.33
2019-03-15T12:44:25.719Z,0.30
2019-03-15T12:46:54.514Z,1.97
2019-03-15T12:49:25.540Z,0.27
2019-03-15T12:51:53.507Z,1.80
2019-03-15T12:54:22.950Z,0.93
2019-03-15T12:56:53.994Z,0.40
2019-03-15T12:59:22.559Z,0.30
2019-03-15T13:01:51.387Z,0.40
2019-03-15T13:04:19.992Z,0.30
2019-03-15T13:06:48.331Z,0.40
2019-03-15T13:09:17.334Z,0.40
2019-03-15T13:11:46.034Z,0.33
2019-03-15T13:14:14.798Z,0.23
2019-03-15T13:16:43.269Z,0.30
2019-03-15T13:19:11.564Z,0.73
2019-03-15T13:21:40.042Z,0.40
2019-03-15T13:24:08.621Z,0.60
2019-03-15T13:26:37.467Z,0.40
2019-03-15T13:29:05.770Z,0.53
2019-03-15T13:31:33.922Z,0.50
2019-03-15T13:34:02.746Z,0.97
2019-03-15T13:36:30.946Z,0.30
2019-03-15T13:38:59.403Z,0.30
2019-03-15T13:41:27.959Z,0.40
2019-03-15T13:43:56.749Z,0.77
2019-03-15T13:46:26.071Z,0.47
2019-03-15T13:48:54.551Z,0.40
2019-03-15T13:51:22.950Z,0.40
2019-03-15T13:53:51.207Z,1.13
2019-03-15T13:56:19.429Z,0.50
2019-03-15T13:58:57.092Z,0.43
2019-03-15T14:01:19.500Z,0.30
2019-03-15T14:03:48.025Z,0.30
2019-03-15T14:06:16.520Z,0.47
2019-03-15T14:08:44.956Z,1.07
2019-03-15T14:11:13.196Z,0.40
2019-03-15T14:13:41.329Z,0.20
2019-03-15T14:16:09.735Z,0.30
2019-03-15T14:18:37.920Z,0.30
2019-03-15T14:21:06.495Z,0.37
2019-03-15T14:23:35.698Z,0.40
2019-03-15T14:26:04.506Z,0.40
2019-03-15T14:28:33.117Z,0.50
2019-03-15T14:31:01.477Z,0.30
2019-03-15T14:33:29.984Z,0.97
2019-03-15T14:35:58.395Z,0.30
2019-03-15T14:38:27.400Z,0.20
2019-03-15T14:40:56.455Z,0.50
2019-03-15T14:43:25.292Z,0.43
2019-03-15T14:45:53.539Z,0.30
2019-03-15T14:48:21.903Z,0.40
2019-03-15T14:50:50.753Z,0.50
2019-03-15T14:53:19.324Z,0.20
2019-03-15T14:55:47.979Z,0.67
2019-03-15T14:58:16.160Z,0.37
2019-03-15T15:00:44.871Z,0.33
2019-03-15T15:03:13.462Z,0.97
2019-03-15T15:05:41.972Z,0.87
2019-03-15T15:08:10.336Z,0.20
2019-03-15T15:10:39.284Z,0.37
2019-03-15T15:13:07.742Z,0.20
2019-03-15T15:15:36.958Z,0.27
2019-03-15T15:18:06.451Z,0.77
2019-03-15T15:20:35.273Z,0.97
2019-03-15T15:23:12.457Z,4.90
2019-03-15T15:25:51.098Z,0.20
2019-03-15T15:28:21.334Z,0.53
2019-03-15T15:30:50.618Z,0.30
2019-03-15T15:33:20.371Z,0.20
2019-03-15T15:35:48.638Z,0.30
2019-03-15T15:38:17.054Z,0.40
2019-03-15T15:40:45.445Z,0.20
2019-03-15T15:43:13.751Z,0.20
2019-03-15T15:45:42.678Z,0.20
2019-03-15T15:48:10.972Z,0.10
2019-03-15T15:50:39.847Z,0.10
2019-03-15T15:53:10.923Z,0.20
2019-03-15T15:55:38.329Z,0.30
2019-03-15T15:58:17.337Z,0.30
2019-03-15T16:00:38.132Z,0.30
2019-03-15T16:03:09.492Z,0.30
2019-03-15T16:05:38.186Z,0.20
2019-03-15T16:08:06.481Z,0.20
2019-03-15T16:10:35.302Z,0.30
2019-03-15T16:13:16.548Z,0.30
2019-03-15T16:15:34.012Z,0.57
2019-03-15T16:18:02.729Z,0.30
2019-03-15T16:20:31.723Z,0.60
2019-03-15T16:22:59.814Z,0.30
2019-03-15T16:25:28.981Z,0.27
2019-03-15T16:27:58.653Z,0.47
2019-03-15T16:30:27.147Z,0.70
2019-03-15T16:32:55.774Z,1.13
2019-03-15T16:35:24.324Z,0.40
2019-03-15T16:37:53.262Z,0.40
2019-03-15T16:40:21.590Z,0.40
2019-03-15T16:42:50.110Z,0.50
2019-03-15T16:45:18.651Z,0.30
2019-03-15T16:47:47.249Z,0.40
2019-03-15T16:50:16.117Z,0.43
2019-03-15T16:52:44.578Z,0.17
2019-03-15T16:55:12.893Z,0.30
2019-03-15T16:57:41.321Z,0.40
2019-03-15T17:00:10.184Z,2.70
2019-03-15T17:02:38.449Z,0.40
2019-03-15T17:05:07.808Z,0.50
2019-03-15T17:07:36.160Z,1.20
2019-03-15T17:10:04.908Z,0.53
2019-03-15T17:12:32.900Z,0.60
2019-03-15T17:15:01.436Z,0.60
2019-03-15T17:17:30.029Z,0.60
2019-03-15T17:19:59.213Z,0.77
2019-03-15T17:22:27.590Z,0.37
2019-03-15T17:24:56.719Z,0.50
2019-03-15T17:27:27.903Z,0.40
2019-03-15T17:29:55.833Z,0.20
2019-03-15T17:32:24.377Z,0.57
2019-03-15T17:34:52.670Z,0.47
2019-03-15T17:37:21.102Z,0.40
2019-03-15T17:39:49.346Z,0.23
2019-03-15T17:42:17.776Z,0.60
2019-03-15T17:44:46.522Z,0.43
2019-03-15T17:47:15.250Z,0.70
2019-03-15T17:49:43.916Z,0.60
2019-03-15T17:52:12.211Z,0.50
2019-03-15T17:54:40.643Z,2.03
2019-03-15T17:57:09.640Z,0.50
2019-03-15T17:59:38.711Z,0.10
2019-03-15T18:02:07.120Z,0.93
2019-03-15T18:04:35.320Z,0.40
2019-03-15T18:07:03.479Z,0.60
2019-03-15T18:09:31.587Z,0.50
2019-03-15T18:11:59.700Z,1.37
2019-03-15T18:14:28.239Z,0.50
2019-03-15T18:16:56.505Z,0.50
2019-03-15T18:19:24.955Z,0.40
2019-03-15T18:21:53.580Z,0.70
2019-03-15T18:24:22.018Z,0.40
2019-03-15T18:26:50.278Z,1.00
2019-03-15T18:29:26.243Z,0.70
2019-03-15T18:31:48.758Z,0.63
2019-03-15T18:34:17.050Z,0.40
2019-03-15T18:36:46.458Z,0.40
2019-03-15T18:39:14.635Z,0.30
2019-03-15T18:41:42.896Z,0.30
2019-03-15T18:44:11.231Z,0.77
2019-03-15T18:46:39.863Z,0.40
2019-03-15T18:49:08.672Z,0.70
2019-03-15T18:51:37.238Z,0.50
2019-03-15T18:54:17.050Z,0.40
2019-03-15T18:56:35.855Z,0.33
2019-03-15T18:59:06.294Z,1.80
2019-03-15T19:01:35.188Z,1.17
2019-03-15T19:04:03.307Z,2.27
2019-03-15T19:06:31.896Z,0.43
2019-03-15T19:08:59.997Z,0.40
2019-03-15T19:11:29.045Z,0.53
2019-03-15T19:13:59.585Z,0.30
2019-03-15T19:16:27.814Z,0.33
2019-03-15T19:18:56.538Z,0.40
2019-03-15T19:21:25.026Z,0.40
2019-03-15T19:23:53.806Z,0.30
2019-03-15T19:26:23.201Z,0.33
2019-03-15T19:28:51.682Z,0.50
2019-03-15T19:31:19.806Z,0.33
2019-03-15T19:33:48.771Z,0.13
2019-03-15T19:36:17.113Z,0.30
2019-03-15T19:38:45.495Z,0.47
2019-03-15T19:41:13.611Z,0.40
2019-03-15T19:43:41.996Z,0.30
2019-03-15T19:46:10.179Z,0.20
2019-03-15T19:48:41.970Z,0.20
2019-03-15T19:51:10.110Z,0.67
2019-03-15T19:53:38.425Z,0.30
2019-03-15T19:56:06.725Z,0.23
2019-03-15T19:58:35.314Z,0.20
2019-03-15T20:01:05.721Z,0.30
2019-03-15T20:03:43.936Z,0.30
2019-03-15T20:06:08.457Z,0.40
2019-03-15T20:08:36.966Z,0.20
2019-03-15T20:11:05.929Z,0.33
2019-03-15T20:13:34.280Z,0.27
2019-03-15T20:16:03.175Z,0.10
2019-03-15T20:18:32.282Z,0.30
2019-03-15T20:21:00.639Z,0.20
2019-03-15T20:23:28.903Z,0.20
2019-03-15T20:25:57.630Z,0.33
2019-03-15T20:28:26.025Z,1.07
2019-03-15T20:30:54.883Z,0.30
2019-03-15T20:33:23.183Z,0.30
2019-03-15T20:35:52.317Z,0.30
2019-03-15T20:38:21.276Z,0.30
2019-03-15T20:40:49.971Z,0.30
2019-03-15T20:43:18.544Z,0.30
2019-03-15T20:45:47.506Z,0.83
2019-03-15T20:48:16.348Z,0.40
2019-03-15T20:50:47.155Z,0.23
2019-03-15T20:53:17.187Z,0.30
2019-03-15T20:55:45.463Z,0.30
2019-03-15T20:58:13.664Z,0.30
2019-03-15T21:00:41.878Z,0.50
2019-03-15T21:03:10.474Z,0.30
2019-03-15T21:05:39.123Z,0.63
2019-03-15T21:08:08.039Z,0.30
2019-03-15T21:10:36.543Z,0.30
2019-03-15T21:13:04.885Z,0.30
2019-03-15T21:15:33.278Z,0.30
2019-03-15T21:18:01.978Z,0.30
2019-03-15T21:20:29.882Z,0.70
2019-03-15T21:22:58.300Z,0.30
2019-03-15T21:25:26.510Z,0.30
2019-03-15T21:27:56.531Z,0.40
2019-03-15T21:30:24.668Z,0.77
2019-03-15T21:32:53.037Z,0.47
2019-03-15T21:35:21.511Z,0.83
2019-03-15T21:37:49.968Z,0.40
2019-03-15T21:40:18.675Z,1.17
2019-03-15T21:42:47.336Z,0.37
2019-03-15T21:45:15.940Z,0.30
2019-03-15T21:47:44.799Z,0.87
2019-03-15T21:50:13.036Z,0.40
2019-03-15T21:52:41.447Z,0.27
2019-03-15T21:55:09.557Z,0.20
2019-03-15T21:57:38.701Z,0.40
2019-03-15T22:00:08.385Z,0.40
2019-03-15T22:02:36.798Z,0.60
2019-03-15T22:05:05.766Z,0.50
2019-03-15T22:07:34.266Z,0.97
2019-03-15T22:10:02.574Z,0.40
2019-03-15T22:12:31.062Z,1.30
2019-03-15T22:14:59.116Z,0.30
2019-03-15T22:17:30.280Z,0.40
2019-03-15T22:19:58.893Z,0.30
2019-03-15T22:22:27.163Z,0.93
2019-03-15T22:24:55.460Z,0.60
2019-03-15T22:27:27.315Z,0.50
2019-03-15T22:29:56.464Z,0.20
2019-03-15T22:32:24.942Z,0.27
2019-03-15T22:34:53.767Z,0.30
2019-03-15T22:37:22.573Z,0.40
2019-03-15T22:39:50.577Z,0.30
2019-03-15T22:42:18.669Z,0.20
2019-03-15T22:44:47.454Z,0.33
2019-03-15T22:47:16.161Z,0.20
2019-03-15T22:49:45.831Z,0.17
2019-03-15T22:52:14.475Z,0.10
2019-03-15T22:54:43.326Z,0.43
2019-03-15T22:57:12.126Z,1.50
2019-03-15T22:59:40.220Z,0.40
2019-03-15T23:02:08.693Z,0.20
2019-03-15T23:04:36.978Z,0.10
2019-03-15T23:07:05.546Z,0.30
2019-03-15T23:09:34.440Z,0.10
2019-03-15T23:12:03.125Z,0.20
2019-03-15T23:14:32.137Z,0.67
2019-03-15T23:17:02.520Z,0.37
2019-03-15T23:19:31.483Z,0.20
2019-03-15T23:22:00.625Z,0.20
2019-03-15T23:24:28.673Z,0.30
2019-03-15T23:26:57.378Z,0.13
2019-03-15T23:29:26.465Z,0.80
2019-03-15T23:31:56.052Z,0.20
2019-03-15T23:34:26.185Z,1.03
2019-03-15T23:36:56.152Z,0.20
2019-03-15T23:39:26.759Z,0.17
2019-03-15T23:41:56.092Z,0.30
2019-03-15T23:44:24.238Z,0.10
2019-03-15T23:46:52.834Z,0.67
2019-03-15T23:49:23.331Z,0.20
2019-03-15T23:51:52.406Z,0.30
2019-03-15T23:54:21.092Z,0.10
2019-03-15T23:56:50.241Z,0.10
2019-03-15T23:59:18.319Z,0.20
